Portada
METAR-TAF:

METAR-TAF

Aeroports :

Grove, Oklahoma, Estats Units d'Amèrica

latitud: 36-36-19N, longitud: 094-44-19W, altitud: 254 m

Observació

L'informe es va fer fa 7 minuts, a les 18:35 UTC
Vent 9 kt del Oest/Sud-Oest
Temperatura 22°C
Humitat 69%
Pressió 1012 hPa
Visibilitat: 16.1 km
Cel ennuvolat a una alçada de 3500 ft

METAR: KGMJ 261835Z AUTO 24009KT 10SM BKN035 22/16 A2988 RMK AO2

Hora: 13:42 (18:42 UTC)


TAF: manca

Observacions i pronòstics meteorològics de més de 4000 aeroports (METAR i TAF).

Les estacions disponibles són els punts grocs i vermells al mapa.

Posi el ratolí al punt desitjat per veure el nom de l'estació.

Feu clic per veure les observacions i els pronòstics meteorològics.

Per canviar el mapa: feu clic els botons verds amb una creu de color negre per apropar; al botó verd amb un guió per allunyar la imatge; o en les fletxes verdes per a mapes adjacents.


METAR-TAF: